createdAt,value
2023-05-16T00:00:35.321Z,9.50
2023-05-16T00:04:41.227Z,9.40
2023-05-16T00:08:46.898Z,9.50
2023-05-16T00:12:51.908Z,9.50
2023-05-16T00:16:55.462Z,9.60
2023-05-16T00:21:00.331Z,9.50
2023-05-16T00:25:05.342Z,9.50
2023-05-16T00:29:10.983Z,9.40
2023-05-16T00:33:17.050Z,9.30
2023-05-16T00:37:20.056Z,9.20
2023-05-16T00:41:26.414Z,9.20
2023-05-16T00:45:29.667Z,9.20
2023-05-16T00:49:32.963Z,9.10
2023-05-16T00:53:39.816Z,9.00
2023-05-16T00:57:45.401Z,9.00
2023-05-16T01:01:49.253Z,8.80
2023-05-16T01:05:54.128Z,8.80
2023-05-16T01:10:01.211Z,8.80
2023-05-16T01:14:22.879Z,8.70
2023-05-16T01:18:32.160Z,8.70
2023-05-16T01:22:47.836Z,8.60
2023-05-16T01:26:54.137Z,8.60
2023-05-16T01:31:00.839Z,8.60
2023-05-16T01:35:04.164Z,8.70
2023-05-16T01:39:16.277Z,8.70
2023-05-16T01:43:41.914Z,8.70
2023-05-16T01:47:50.068Z,8.80
2023-05-16T01:51:58.039Z,8.90
2023-05-16T01:56:06.734Z,9.00
2023-05-16T02:00:14.428Z,9.10
2023-05-16T02:04:30.194Z,9.10
2023-05-16T02:08:38.923Z,9.20
2023-05-16T02:12:44.924Z,9.30
2023-05-16T02:16:49.720Z,9.40
2023-05-16T02:20:53.091Z,9.50
2023-05-16T02:24:56.494Z,9.60
2023-05-16T02:29:00.910Z,9.60
2023-05-16T02:33:12.450Z,9.70
2023-05-16T02:37:15.646Z,9.70
2023-05-16T02:41:22.475Z,9.80
2023-05-16T02:45:26.209Z,9.80
2023-05-16T02:49:30.791Z,9.90
2023-05-16T02:53:36.116Z,9.90
2023-05-16T02:57:42.139Z,9.90
2023-05-16T03:01:47.124Z,9.90
2023-05-16T03:05:52.634Z,10.00
2023-05-16T03:09:55.622Z,10.00
2023-05-16T03:14:01.513Z,10.00
2023-05-16T03:18:07.524Z,9.90
2023-05-16T03:22:14.544Z,9.90
2023-05-16T03:26:17.696Z,9.90
2023-05-16T03:30:26.518Z,9.90
2023-05-16T03:34:29.691Z,9.90
2023-05-16T03:38:38.316Z,9.90
2023-05-16T03:42:42.458Z,9.90
2023-05-16T03:46:48.170Z,9.90
2023-05-16T03:50:51.481Z,10.00
2023-05-16T03:54:58.996Z,10.00
2023-05-16T03:59:02.045Z,10.10
2023-05-16T04:03:07.809Z,10.10
2023-05-16T04:07:11.043Z,10.10
2023-05-16T04:11:15.570Z,10.20
2023-05-16T04:15:18.913Z,10.30
2023-05-16T04:19:22.110Z,10.50
2023-05-16T04:23:25.179Z,10.60
2023-05-16T04:27:30.797Z,10.70
2023-05-16T04:31:37.244Z,10.80
2023-05-16T04:35:40.493Z,10.90
2023-05-16T04:39:47.843Z,11.10
2023-05-16T04:43:52.331Z,11.30
2023-05-16T04:47:57.294Z,11.40
2023-05-16T04:52:00.562Z,11.40
2023-05-16T04:56:05.871Z,11.50
2023-05-16T05:00:17.848Z,11.60
2023-05-16T05:04:22.873Z,11.80
2023-05-16T05:08:26.299Z,11.90
2023-05-16T05:12:31.449Z,12.00
2023-05-16T05:16:37.515Z,12.10
2023-05-16T05:20:41.557Z,12.20
2023-05-16T05:24:44.925Z,12.50
2023-05-16T05:28:57.334Z,12.80
2023-05-16T05:33:10.684Z,13.00
2023-05-16T05:37:13.778Z,13.20
2023-05-16T05:41:17.495Z,13.40
2023-05-16T05:45:20.654Z,13.70
2023-05-16T05:49:26.713Z,14.10
2023-05-16T05:53:29.913Z,14.30
2023-05-16T05:57:32.956Z,14.70
2023-05-16T06:01:36.051Z,14.90
2023-05-16T06:05:43.599Z,15.00
2023-05-16T06:09:46.853Z,15.30
2023-05-16T06:13:50.132Z,15.40
2023-05-16T06:17:55.942Z,15.30
2023-05-16T06:22:02.184Z,15.40
2023-05-16T06:26:05.807Z,15.60
2023-05-16T06:30:12.709Z,16.00
2023-05-16T06:34:15.726Z,16.40
2023-05-16T06:38:20.935Z,17.00
2023-05-16T06:42:24.026Z,17.20
2023-05-16T06:46:28.526Z,17.40
2023-05-16T06:50:32.136Z,17.40
2023-05-16T06:54:37.659Z,17.50
2023-05-16T06:58:43.428Z,17.90
2023-05-16T07:02:46.523Z,17.30
2023-05-16T07:06:52.919Z,16.90
2023-05-16T07:10:57.339Z,17.00
2023-05-16T07:15:02.291Z,17.20
2023-05-16T07:19:05.535Z,17.50
2023-05-16T07:23:10.962Z,17.70
2023-05-16T07:27:15.764Z,17.60
2023-05-16T07:31:19.125Z,17.50
2023-05-16T07:35:22.309Z,17.50
2023-05-16T07:39:25.586Z,17.60
2023-05-16T07:43:30.373Z,17.60
2023-05-16T07:47:33.475Z,17.80
2023-05-16T07:51:38.851Z,17.90
2023-05-16T07:55:42.532Z,17.80
2023-05-16T07:59:47.172Z,17.90
2023-05-16T08:03:50.438Z,18.00
2023-05-16T08:07:55.127Z,17.90
2023-05-16T08:11:58.231Z,17.80
2023-05-16T08:16:03.765Z,17.80
2023-05-16T08:20:09.706Z,17.80
2023-05-16T08:24:12.940Z,18.00
2023-05-16T08:28:16.731Z,18.20
2023-05-16T08:32:22.418Z,18.50
2023-05-16T08:36:26.278Z,18.80
2023-05-16T08:40:31.721Z,18.90
2023-05-16T08:44:37.664Z,19.10
2023-05-16T08:48:46.298Z,19.30
2023-05-16T08:52:58.205Z,19.80
2023-05-16T08:57:05.562Z,20.30
2023-05-16T09:01:11.212Z,20.60
2023-05-16T09:05:19.139Z,21.00
2023-05-16T09:09:26.267Z,21.30
2023-05-16T09:13:29.271Z,21.50
2023-05-16T09:17:40.200Z,21.60
2023-05-16T09:21:46.127Z,21.80
2023-05-16T09:25:51.903Z,22.20
2023-05-16T09:29:58.748Z,22.20
2023-05-16T09:34:04.164Z,21.40
2023-05-16T09:38:18.798Z,21.00
2023-05-16T09:42:23.347Z,20.60
2023-05-16T09:46:33.107Z,20.80
2023-05-16T09:50:37.145Z,21.10
2023-05-16T09:54:42.008Z,21.00
2023-05-16T09:58:47.486Z,21.10
2023-05-16T10:02:52.213Z,21.10
2023-05-16T10:06:57.912Z,21.40
2023-05-16T10:11:02.689Z,22.10
2023-05-16T10:15:07.786Z,22.90
2023-05-16T10:19:12.513Z,23.40
2023-05-16T10:23:18.890Z,23.60
2023-05-16T10:27:24.521Z,23.50
2023-05-16T10:31:27.849Z,22.60
2023-05-16T10:35:31.454Z,21.90
2023-05-16T10:39:35.117Z,21.40
2023-05-16T10:43:44.536Z,20.90
2023-05-16T10:47:55.266Z,20.40
2023-05-16T10:52:09.553Z,20.30
2023-05-16T10:56:15.707Z,20.30
2023-05-16T11:00:24.905Z,20.20
2023-05-16T11:04:47.301Z,20.10
2023-05-16T11:09:05.522Z,20.00
2023-05-16T11:13:09.651Z,20.00
2023-05-16T11:17:18.084Z,20.00
2023-05-16T11:21:24.310Z,19.90
2023-05-16T11:25:41.403Z,19.80
2023-05-16T11:29:45.889Z,19.70
2023-05-16T11:33:50.649Z,19.60
2023-05-16T11:37:53.820Z,19.60
2023-05-16T11:41:58.261Z,19.40
2023-05-16T11:46:04.683Z,19.30
2023-05-16T11:50:14.029Z,19.20
2023-05-16T11:54:20.295Z,19.10
2023-05-16T11:58:24.277Z,19.10
2023-05-16T12:02:30.456Z,19.20
2023-05-16T12:06:35.237Z,19.10
2023-05-16T12:10:38.641Z,19.10
2023-05-16T12:14:42.081Z,19.20
2023-05-16T12:18:45.580Z,19.20
2023-05-16T12:22:50.349Z,19.10
2023-05-16T12:26:54.972Z,18.90
2023-05-16T12:30:58.039Z,18.70
2023-05-16T12:35:03.346Z,18.30
2023-05-16T12:39:09.305Z,17.60
2023-05-16T12:43:17.643Z,16.10
2023-05-16T12:47:28.462Z,15.00
2023-05-16T12:51:35.597Z,14.60
2023-05-16T12:55:40.287Z,14.30
2023-05-16T12:59:43.460Z,14.30
2023-05-16T13:03:51.429Z,14.30
2023-05-16T13:07:57.131Z,14.20
2023-05-16T13:12:01.869Z,14.20
2023-05-16T13:16:05.209Z,14.20
2023-05-16T13:20:10.194Z,14.10
2023-05-16T13:24:14.995Z,14.10
2023-05-16T13:28:22.054Z,14.10
2023-05-16T13:32:25.386Z,14.10
2023-05-16T13:36:29.923Z,14.10
2023-05-16T13:40:39.116Z,14.00
2023-05-16T13:44:45.925Z,14.00
2023-05-16T13:48:53.219Z,14.00
2023-05-16T13:52:56.327Z,13.90
2023-05-16T13:56:59.392Z,14.00
2023-05-16T14:01:09.929Z,14.10
2023-05-16T14:05:13.172Z,14.30
2023-05-16T14:09:17.019Z,14.40
2023-05-16T14:13:20.094Z,14.60
2023-05-16T14:17:24.614Z,14.70
2023-05-16T14:21:32.630Z,14.80
2023-05-16T14:25:36.310Z,14.90
2023-05-16T14:29:39.329Z,15.00
2023-05-16T14:33:48.434Z,14.90
2023-05-16T14:37:51.932Z,14.90
2023-05-16T14:41:55.258Z,14.90
2023-05-16T14:45:58.890Z,14.90
2023-05-16T14:50:04.426Z,14.90
2023-05-16T14:54:10.445Z,14.90
2023-05-16T14:58:13.475Z,14.90
2023-05-16T15:02:18.839Z,15.00
2023-05-16T15:06:28.508Z,15.10
2023-05-16T15:10:31.788Z,15.20
2023-05-16T15:14:41.368Z,15.30
2023-05-16T15:18:46.141Z,15.40
2023-05-16T15:22:54.650Z,15.60
2023-05-16T15:26:57.919Z,15.60
2023-05-16T15:31:02.145Z,15.50
2023-05-16T15:35:09.574Z,15.60
2023-05-16T15:39:15.396Z,15.80
2023-05-16T15:43:18.394Z,15.90
2023-05-16T15:47:25.115Z,16.00
2023-05-16T15:51:28.206Z,16.00
2023-05-16T15:55:32.964Z,16.10
2023-05-16T15:59:36.707Z,16.10
2023-05-16T16:03:46.363Z,15.90
2023-05-16T16:07:49.635Z,15.90
2023-05-16T16:11:56.722Z,16.00
2023-05-16T16:15:59.902Z,16.00
2023-05-16T16:20:07.559Z,15.80
2023-05-16T16:24:13.019Z,15.70
2023-05-16T16:28:17.700Z,15.60
2023-05-16T16:32:20.750Z,15.40
2023-05-16T16:36:24.936Z,15.50
2023-05-16T16:40:36.184Z,15.40
2023-05-16T16:44:40.619Z,15.50
2023-05-16T16:48:48.060Z,15.50
2023-05-16T16:52:54.917Z,15.50
2023-05-16T16:56:59.781Z,15.40
2023-05-16T17:01:06.984Z,15.30
2023-05-16T17:05:14.728Z,15.30
2023-05-16T17:09:19.658Z,15.20
2023-05-16T17:13:22.691Z,15.20
2023-05-16T17:17:28.424Z,15.10
2023-05-16T17:21:34.642Z,15.10
2023-05-16T17:25:39.290Z,14.90
2023-05-16T17:29:42.742Z,14.80
2023-05-16T17:33:47.166Z,14.70
2023-05-16T17:37:52.186Z,14.40
2023-05-16T17:42:04.591Z,14.30
2023-05-16T17:46:07.701Z,14.00
2023-05-16T17:50:12.798Z,13.80
2023-05-16T17:54:21.433Z,13.70
2023-05-16T17:58:24.849Z,13.50
2023-05-16T18:02:30.718Z,13.40
2023-05-16T18:06:39.365Z,13.30
2023-05-16T18:14:53.316Z,13.10
2023-05-16T18:18:59.122Z,13.10
2023-05-16T18:23:03.644Z,13.10
2023-05-16T18:27:07.259Z,12.90
2023-05-16T18:31:10.747Z,12.80
2023-05-16T18:35:18.334Z,12.70
2023-05-16T18:39:23.138Z,12.60
2023-05-16T18:43:26.351Z,12.60
2023-05-16T18:47:31.980Z,12.50
2023-05-16T18:51:35.243Z,12.50
2023-05-16T18:55:40.074Z,12.40
2023-05-16T18:59:43.930Z,12.30
2023-05-16T19:03:47.141Z,12.30
2023-05-16T19:07:50.326Z,12.20
2023-05-16T19:11:54.760Z,12.10
2023-05-16T19:16:01.305Z,12.10
2023-05-16T19:20:12.064Z,12.00
2023-05-16T19:24:18.184Z,12.00
2023-05-16T19:28:22.963Z,11.90
2023-05-16T19:32:26.281Z,11.90
2023-05-16T19:36:29.894Z,11.80
2023-05-16T19:40:34.113Z,11.80
2023-05-16T19:44:38.587Z,11.70
2023-05-16T19:48:45.317Z,11.70
2023-05-16T19:52:48.474Z,11.70
2023-05-16T19:56:54.619Z,11.60
2023-05-16T20:01:00.975Z,11.60
2023-05-16T20:05:04.870Z,11.60
2023-05-16T20:09:11.332Z,11.50
2023-05-16T20:13:20.896Z,11.50
2023-05-16T20:17:27.581Z,11.40
2023-05-16T20:21:34.097Z,11.40
2023-05-16T20:25:40.857Z,11.40
2023-05-16T20:29:45.105Z,11.30
2023-05-16T20:33:50.364Z,11.20
2023-05-16T20:37:56.825Z,11.20
2023-05-16T20:42:00.097Z,11.10
2023-05-16T20:46:05.291Z,11.10
2023-05-16T20:50:14.136Z,11.00
2023-05-16T20:54:17.213Z,10.90
2023-05-16T20:58:23.206Z,10.90
2023-05-16T21:02:30.268Z,10.80
2023-05-16T21:06:37.753Z,10.80
2023-05-16T21:10:40.961Z,10.80
2023-05-16T21:14:46.723Z,10.80
2023-05-16T21:18:51.920Z,10.80
2023-05-16T21:22:56.780Z,10.80
2023-05-16T21:27:05.521Z,10.80
2023-05-16T21:31:10.678Z,10.80
2023-05-16T21:35:14.093Z,10.70
2023-05-16T21:39:18.528Z,10.70
2023-05-16T21:43:21.988Z,10.60
2023-05-16T21:47:27.494Z,10.60
2023-05-16T21:51:30.872Z,10.50
2023-05-16T21:55:35.487Z,10.50
2023-05-16T21:59:38.551Z,10.50
2023-05-16T22:03:41.728Z,10.40
2023-05-16T22:07:44.799Z,10.40
2023-05-16T22:11:50.614Z,10.40
2023-05-16T22:16:04.150Z,10.40
2023-05-16T22:20:12.111Z,10.40
2023-05-16T22:24:17.524Z,10.40
2023-05-16T22:28:21.975Z,10.30
2023-05-16T22:32:26.187Z,10.30
2023-05-16T22:36:36.344Z,10.30
2023-05-16T22:40:41.150Z,10.30
2023-05-16T22:44:45.738Z,10.30
2023-05-16T22:48:51.893Z,10.30
2023-05-16T22:52:54.936Z,10.30
2023-05-16T22:56:57.987Z,10.30
2023-05-16T23:01:02.787Z,10.30
2023-05-16T23:05:06.619Z,10.30
2023-05-16T23:09:09.735Z,10.30
2023-05-16T23:13:15.352Z,10.30
2023-05-16T23:17:19.906Z,10.30
2023-05-16T23:21:24.565Z,10.30
2023-05-16T23:25:27.804Z,10.30
2023-05-16T23:29:33.861Z,10.20
2023-05-16T23:33:40.669Z,10.20
2023-05-16T23:37:48.569Z,10.20
2023-05-16T23:41:54.484Z,10.10
2023-05-16T23:46:02.442Z,10.10
2023-05-16T23:50:10.418Z,10.00
2023-05-16T23:54:15.997Z,10.00
2023-05-16T23:58:20.804Z,9.90
